TimeMDT,TemperatureF,Dew PointF,Humidity,Sea Level PressureIn,VisibilityMPH,Wind Direction,Wind SpeedMPH,Gust SpeedMPH,PrecipitationIn,Events,Conditions,WindDirDegrees,DateUTC
12:53 AM,73.0,53.1,49,29.63,10.0,SE,12.7,-,N/A,,Clear,130,2013-07-06 06:53:00
1:53 AM,73.9,51.1,45,29.63,10.0,South,9.2,-,N/A,,Clear,170,2013-07-06 07:53:00
2:53 AM,69.1,52.0,54,29.65,10.0,SSW,5.8,-,N/A,,Clear,210,2013-07-06 08:53:00
3:53 AM,64.9,55.9,73,29.66,10.0,West,5.8,-,N/A,,Clear,270,2013-07-06 09:53:00
4:53 AM,63.0,55.9,78,29.69,10.0,SSW,3.5,-,N/A,,Clear,210,2013-07-06 10:53:00
5:53 AM,62.1,55.9,80,29.70,10.0,SSW,3.5,-,N/A,,Clear,200,2013-07-06 11:53:00
6:53 AM,69.1,57.0,65,29.70,10.0,SW,4.6,-,N/A,,Clear,230,2013-07-06 12:53:00
7:53 AM,75.0,57.9,55,29.70,10.0,WNW,8.1,-,N/A,,Clear,300,2013-07-06 13:53:00
8:53 AM,79.0,59.0,50,29.70,10.0,WNW,9.2,-,N/A,,Clear,300,2013-07-06 14:53:00
9:53 AM,82.9,59.0,44,29.70,10.0,NNW,9.2,-,N/A,,Clear,330,2013-07-06 15:53:00
10:53 AM,88.0,59.0,37,29.71,10.0,NNW,6.9,-,N/A,,Clear,340,2013-07-06 16:53:00
11:53 AM,91.0,57.0,32,29.72,10.0,NNW,11.5,-,N/A,,Clear,340,2013-07-06 17:53:00
12:53 PM,93.0,57.0,30,29.71,10.0,NNW,8.1,-,N/A,,Clear,330,2013-07-06 18:53:00
1:53 PM,95.0,55.9,27,29.70,10.0,Variable,4.6,-,N/A,,Clear,0,2013-07-06 19:53:00
2:53 PM,96.1,55.9,26,29.70,10.0,Variable,3.5,-,N/A,,Clear,0,2013-07-06 20:53:00
3:53 PM,97.0,55.0,24,29.70,10.0,NNE,4.6,-,N/A,,Clear,30,2013-07-06 21:53:00
4:53 PM,97.0,53.1,23,29.69,10.0,Variable,3.5,-,N/A,,Clear,0,2013-07-06 22:53:00
5:53 PM,96.1,52.0,22,29.69,10.0,East,3.5,-,N/A,,Clear,100,2013-07-06 23:53:00
6:53 PM,90.0,57.9,34,29.69,10.0,ENE,5.8,-,N/A,,Clear,60,2013-07-07 00:53:00
7:53 PM,84.0,61.0,46,29.70,10.0,NNE,3.5,-,N/A,,Clear,30,2013-07-07 01:53:00
8:53 PM,78.1,61.0,56,29.73,10.0,NNE,4.6,-,N/A,,Clear,30,2013-07-07 02:53:00
9:53 PM,75.0,60.1,60,29.75,10.0,NNE,5.8,-,N/A,,Clear,30,2013-07-07 03:53:00
10:53 PM,72.0,60.1,66,29.75,10.0,Calm,Calm,-,N/A,,Clear,0,2013-07-07 04:53:00
11:53 PM,71.1,60.1,68,29.75,10.0,Calm,Calm,-,N/A,,Clear,0,2013-07-07 05:53:00